Westview, KY (40178)

3:35 PM CDT on July 29, 2016 (GMT -0500)
Eveleigh Road | | Change Station

Elev 670 ft 37.58 °N, 86.34 °W | Updated 41 seconds ago

Scattered Clouds
Scattered Clouds
84.7 °F
Feels Like 101 °F
N
0.0
Wind Variable Wind from NW
Gusts 3.1 mph

Today
High -- | Low -- °F
--% Chance of Precip.
Yesterday
High -- | Low -- °F
Precip. -- in
Pressure 29.89 in
Visibility 10.0 miles
Clouds Scattered Clouds 2600 ft
Scattered Clouds 3200 ft
Heat Index 101 °F
Dew Point 82 °F
Humidity 90%
Rainfall 0.04 in
Snow Depth Not available.
5:47 AM 7:56 PM
Waning Crescent, 19% visible
METAR KFTK 291958Z AUTO 24007KT 10SM SCT026 SCT032 29/22 A2990 RMK AO2 SLP121 T02920220
Pressure 29.89 in
Visibility 10.0 miles
Clouds Scattered Clouds 2600 ft
Scattered Clouds 3200 ft
Heat Index 101 °F
Dew Point 82 °F
Humidity 90%
Rainfall 0.04 in
Snow Depth Not available.
5:47 AM 7:56 PM
Waning Crescent, 19% visible
METAR KFTK 291958Z AUTO 24007KT 10SM SCT026 SCT032 29/22 A2990 RMK AO2 SLP121 T02920220

10-Day Weather Forecast

Almanac

Astronomy

Jul. 29, 2016 Rise Set
Actual Time
Civil Twilight
Nautical Twilight
Astronomical Twilight
Moon
Length of Visible Light
Length of Day
Tomorrow will be .
, % of the Moon is Illuminated

Today's Extremes

State Highs State Lows

Community

WunderPhotos

Upload Photos

1,928,407 photos uploaded!

WunderBlog® & News

Nearby

Air Quality

  Air Quality AQ Index Pollutant
Not available.

Snow Depth

Station Depth Elevation

Earthquake Activity

City Distance Mag. Time & Date
Minimum magnitude displayed is 2.5.

Coastal Water Temperatures

Place Temperature

Stations

Nearby Weather Stations

Station Location Temp. Windchill Dew Point Humidity Wind Precip. Elev Updated Type
                   

Watches & Warnings

There are currently no watches in effect.